createdAt,value
2023-04-28T00:01:26.295Z,11.70
2023-04-28T00:03:53.375Z,12.23
2023-04-28T00:06:19.975Z,12.83
2023-04-28T00:08:46.325Z,12.07
2023-04-28T00:11:12.753Z,12.10
2023-04-28T00:13:39.360Z,12.27
2023-04-28T00:16:06.221Z,12.33
2023-04-28T00:18:33.579Z,12.80
2023-04-28T00:21:01.445Z,17.53
2023-04-28T00:23:27.846Z,12.27
2023-04-28T00:25:55.763Z,11.03
2023-04-28T00:28:33.466Z,12.70
2023-04-28T00:31:01.509Z,15.07
2023-04-28T00:33:27.989Z,13.20
2023-04-28T00:36:01.221Z,12.27
2023-04-28T00:38:27.851Z,13.60
2023-04-28T00:40:54.259Z,15.27
2023-04-28T00:43:20.635Z,16.77
2023-04-28T00:45:47.124Z,12.90
2023-04-28T00:48:14.033Z,11.97
2023-04-28T00:50:40.537Z,12.73
2023-04-28T00:53:07.053Z,12.80
2023-04-28T00:55:35.133Z,12.53
2023-04-28T00:58:02.392Z,13.47
2023-04-28T01:00:29.124Z,14.03
2023-04-28T01:02:57.439Z,12.50
2023-04-28T01:05:29.054Z,12.80
2023-04-28T01:07:56.396Z,13.23
2023-04-28T01:10:22.868Z,13.10
2023-04-28T01:12:49.346Z,11.93
2023-04-28T01:15:17.896Z,12.97
2023-04-28T01:17:46.731Z,13.03
2023-04-28T01:20:14.415Z,12.10
2023-04-28T01:22:41.428Z,14.53
2023-04-28T01:25:08.676Z,12.83
2023-04-28T01:27:35.294Z,13.53
2023-04-28T01:30:02.276Z,12.80
2023-04-28T01:32:28.751Z,13.10
2023-04-28T01:34:56.147Z,13.50
2023-04-28T01:37:22.626Z,11.87
2023-04-28T01:39:49.007Z,13.77
2023-04-28T01:42:15.557Z,14.53
2023-04-28T01:44:41.989Z,12.93
2023-04-28T01:47:10.584Z,12.20
2023-04-28T01:49:36.999Z,13.57
2023-04-28T01:52:03.480Z,12.20
2023-04-28T01:54:29.929Z,13.33
2023-04-28T01:56:56.290Z,12.47
2023-04-28T01:59:24.605Z,13.40
2023-04-28T02:01:51.099Z,13.60
2023-04-28T02:04:17.831Z,12.93
2023-04-28T02:06:44.487Z,12.27
2023-04-28T02:09:12.827Z,12.27
2023-04-28T02:11:39.218Z,12.47
2023-04-28T02:14:05.571Z,16.33
2023-04-28T02:16:33.572Z,14.60
2023-04-28T02:19:00.033Z,14.00
2023-04-28T02:21:27.866Z,13.70
2023-04-28T02:23:54.329Z,14.60
2023-04-28T02:26:20.699Z,12.53
2023-04-28T02:28:51.629Z,13.23
2023-04-28T02:31:18.114Z,17.33
2023-04-28T02:33:45.608Z,14.57
2023-04-28T02:36:12.208Z,13.43
2023-04-28T02:38:41.370Z,13.53
2023-04-28T02:41:09.108Z,13.13
2023-04-28T02:43:37.129Z,17.93
2023-04-28T02:46:04.635Z,14.50
2023-04-28T02:48:31.562Z,16.07
2023-04-28T02:50:57.948Z,14.30
2023-04-28T02:53:24.400Z,17.20
2023-04-28T02:55:50.802Z,15.47
2023-04-28T02:58:17.964Z,14.80
2023-04-28T03:00:45.633Z,13.67
2023-04-28T03:03:12.591Z,15.03
2023-04-28T03:05:39.309Z,15.23
2023-04-28T03:08:06.156Z,23.70
2023-04-28T03:10:32.657Z,20.23
2023-04-28T03:13:00.604Z,16.87
2023-04-28T03:15:27.074Z,15.37
2023-04-28T03:17:53.541Z,19.07
2023-04-28T03:20:20.107Z,21.57
2023-04-28T03:22:46.500Z,16.20
2023-04-28T03:25:13.127Z,23.77
2023-04-28T03:27:47.737Z,18.93
2023-04-28T03:30:14.380Z,18.30
2023-04-28T03:32:40.859Z,18.77
2023-04-28T03:35:08.109Z,20.23
2023-04-28T03:37:34.608Z,21.33
2023-04-28T03:40:01.364Z,19.27
2023-04-28T03:42:31.018Z,23.80
2023-04-28T03:45:08.961Z,26.03
2023-04-28T03:47:35.462Z,20.33
2023-04-28T03:50:01.935Z,22.53
2023-04-28T03:52:28.772Z,20.60
2023-04-28T03:54:55.365Z,20.93
2023-04-28T03:57:21.760Z,18.43
2023-04-28T03:59:48.187Z,22.97
2023-04-28T04:02:16.141Z,19.77
2023-04-28T04:04:43.694Z,26.70
2023-04-28T04:07:10.345Z,20.23
2023-04-28T04:09:36.789Z,23.00
2023-04-28T04:12:04.696Z,31.27
2023-04-28T04:14:31.104Z,23.27
2023-04-28T04:16:57.582Z,26.63
2023-04-28T04:19:26.257Z,21.53
2023-04-28T04:21:53.886Z,22.47
2023-04-28T04:24:20.347Z,21.73
2023-04-28T04:26:46.726Z,26.27
2023-04-28T04:29:25.460Z,23.73
2023-04-28T04:31:52.172Z,32.70
2023-04-28T04:34:18.741Z,30.27
2023-04-28T04:36:45.734Z,20.87
2023-04-28T04:39:12.605Z,18.50
2023-04-28T04:41:39.245Z,21.13
2023-04-28T04:44:26.197Z,25.17
2023-04-28T04:46:53.532Z,24.33
2023-04-28T04:49:20.677Z,25.60
2023-04-28T04:51:47.046Z,23.67
2023-04-28T04:54:13.561Z,19.90
2023-04-28T04:56:42.586Z,22.00
2023-04-28T04:59:10.364Z,24.37
2023-04-28T05:01:57.021Z,25.60
2023-04-28T05:04:23.866Z,26.80
2023-04-28T05:06:50.513Z,23.60
2023-04-28T05:09:17.212Z,28.07
2023-04-28T05:11:45.356Z,25.53
2023-04-28T05:14:11.981Z,26.80
2023-04-28T05:16:42.081Z,27.10
2023-04-28T05:19:16.057Z,26.67
2023-04-28T05:21:42.662Z,22.83
2023-04-28T05:24:09.051Z,24.27
2023-04-28T05:26:36.404Z,29.33
2023-04-28T05:29:06.762Z,24.63
2023-04-28T05:31:33.153Z,30.50
2023-04-28T05:33:59.657Z,22.13
2023-04-28T05:36:26.601Z,30.63
2023-04-28T05:38:53.016Z,31.27
2023-04-28T05:41:19.633Z,28.87
2023-04-28T05:43:47.772Z,26.40
2023-04-28T05:46:28.253Z,29.13
2023-04-28T05:48:56.944Z,24.73
2023-04-28T05:51:23.442Z,27.43
2023-04-28T05:53:49.782Z,26.47
2023-04-28T05:56:16.972Z,28.77
2023-04-28T05:58:47.915Z,27.67
2023-04-28T06:01:14.392Z,23.13
2023-04-28T06:03:41.796Z,26.77
2023-04-28T06:06:10.811Z,24.33
2023-04-28T06:08:38.255Z,25.60
2023-04-28T06:11:05.392Z,26.33
2023-04-28T06:13:31.764Z,24.00
2023-04-28T06:15:58.320Z,23.70
2023-04-28T06:18:24.790Z,24.83
2023-04-28T06:20:51.216Z,28.87
2023-04-28T06:23:17.572Z,21.23
2023-04-28T06:25:46.067Z,25.70
2023-04-28T06:28:13.316Z,23.73
2023-04-28T06:30:39.710Z,27.73
2023-04-28T06:33:06.266Z,26.67
2023-04-28T06:35:35.628Z,24.83
2023-04-28T06:38:03.559Z,29.10
2023-04-28T06:40:29.986Z,29.27
2023-04-28T06:42:57.918Z,31.00
2023-04-28T06:45:33.234Z,22.07
2023-04-28T06:47:59.697Z,26.20
2023-04-28T06:50:26.270Z,27.63
2023-04-28T06:52:52.578Z,23.50
2023-04-28T06:55:19.123Z,26.33
2023-04-28T06:57:45.653Z,22.80
2023-04-28T07:00:13.389Z,23.73
2023-04-28T07:02:40.052Z,24.77
2023-04-28T07:05:07.157Z,22.47
2023-04-28T07:07:33.585Z,25.50
2023-04-28T07:10:00.989Z,29.03
2023-04-28T07:12:27.634Z,23.07
2023-04-28T07:14:54.069Z,25.90
2023-04-28T07:17:20.431Z,24.77
2023-04-28T07:19:46.876Z,22.20
2023-04-28T07:22:13.287Z,22.63
2023-04-28T07:24:39.729Z,19.57
2023-04-28T07:27:06.231Z,23.20
2023-04-28T07:29:34.947Z,19.13
2023-04-28T07:32:02.007Z,19.27
2023-04-28T07:34:28.464Z,20.57
2023-04-28T07:36:55.030Z,18.67
2023-04-28T07:39:21.416Z,17.83
2023-04-28T07:41:48.105Z,16.57
2023-04-28T07:44:14.757Z,15.97
2023-04-28T07:46:41.351Z,16.93
2023-04-28T07:49:08.348Z,15.67
2023-04-28T07:51:34.745Z,15.37
2023-04-28T07:54:01.180Z,21.20
2023-04-28T07:56:27.595Z,20.13
2023-04-28T07:58:53.975Z,18.10
2023-04-28T08:01:20.464Z,13.70
2023-04-28T08:03:47.030Z,18.50
2023-04-28T08:06:13.778Z,14.87
2023-04-28T08:08:40.445Z,15.17
2023-04-28T08:11:07.794Z,14.63
2023-04-28T08:13:34.289Z,19.90
2023-04-28T08:16:01.000Z,13.93
2023-04-28T08:18:29.246Z,13.43
2023-04-28T08:20:55.777Z,16.63
2023-04-28T08:23:22.282Z,14.30
2023-04-28T08:25:50.155Z,12.93
2023-04-28T08:28:16.555Z,20.23
2023-04-28T08:30:43.014Z,12.10
2023-04-28T08:33:09.438Z,12.60
2023-04-28T08:35:35.905Z,12.77
2023-04-28T08:38:02.334Z,12.27
2023-04-28T08:40:31.257Z,12.77
2023-04-28T08:42:58.429Z,15.13
2023-04-28T08:45:27.878Z,13.67
2023-04-28T08:47:56.750Z,13.67
2023-04-28T08:50:24.553Z,10.07
2023-04-28T08:52:52.123Z,12.70
2023-04-28T08:55:19.106Z,12.30
2023-04-28T08:57:49.283Z,18.77
2023-04-28T09:00:15.973Z,11.27
2023-04-28T09:02:42.925Z,13.63
2023-04-28T09:05:11.384Z,10.37
2023-04-28T09:07:38.458Z,10.70
2023-04-28T09:10:21.976Z,10.97
2023-04-28T09:12:52.217Z,12.53
2023-04-28T09:15:29.514Z,10.73
2023-04-28T09:17:57.288Z,10.10
2023-04-28T09:20:25.825Z,9.60
2023-04-28T09:22:53.647Z,9.83
2023-04-28T09:25:24.054Z,12.40
2023-04-28T09:27:50.505Z,9.37
2023-04-28T09:30:17.141Z,9.60
2023-04-28T09:32:43.802Z,8.17
2023-04-28T09:35:10.551Z,10.40
2023-04-28T09:37:37.594Z,12.03
2023-04-28T09:40:09.647Z,10.43
2023-04-28T09:42:38.962Z,9.07
2023-04-28T09:45:06.416Z,10.37
2023-04-28T09:47:35.460Z,9.80
2023-04-28T09:50:09.430Z,9.90
2023-04-28T09:52:36.596Z,10.70
2023-04-28T09:55:05.545Z,10.80
2023-04-28T09:57:33.884Z,10.07
2023-04-28T10:00:02.109Z,10.10
2023-04-28T10:02:43.496Z,10.10
2023-04-28T10:05:11.454Z,12.47
2023-04-28T10:07:39.174Z,10.43
2023-04-28T10:10:07.260Z,10.80
2023-04-28T10:12:34.648Z,10.00
2023-04-28T10:15:01.960Z,9.20
2023-04-28T10:17:29.421Z,9.63
2023-04-28T10:19:57.010Z,27.93
2023-04-28T10:22:55.384Z,11.40
2023-04-28T10:25:32.484Z,9.60
2023-04-28T10:28:00.835Z,8.27
2023-04-28T10:30:30.617Z,8.77
2023-04-28T10:33:06.456Z,9.00
2023-04-28T10:35:40.577Z,10.50
2023-04-28T10:38:17.999Z,12.73
2023-04-28T10:40:54.291Z,13.53
2023-04-28T10:43:32.946Z,10.77
2023-04-28T10:46:01.341Z,10.07
2023-04-28T10:48:34.225Z,11.33
2023-04-28T10:51:07.526Z,11.33
2023-04-28T10:53:46.140Z,10.70
2023-04-28T10:56:16.606Z,10.67
2023-04-28T10:58:45.963Z,9.87
2023-04-28T11:01:21.423Z,9.73
2023-04-28T11:03:49.515Z,11.67
2023-04-28T11:06:26.601Z,13.63
2023-04-28T11:08:55.509Z,15.33
2023-04-28T11:11:33.434Z,11.43
2023-04-28T11:14:20.757Z,14.43
2023-04-28T11:17:01.462Z,12.97
2023-04-28T11:19:30.282Z,14.50
2023-04-28T11:21:58.544Z,12.73
2023-04-28T11:24:27.261Z,18.13
2023-04-28T11:26:53.654Z,12.50
2023-04-28T11:29:33.234Z,13.97
2023-04-28T11:31:59.896Z,17.60
2023-04-28T11:34:26.643Z,14.83
2023-04-28T11:36:54.644Z,21.70
2023-04-28T11:39:32.367Z,22.10
2023-04-28T11:42:00.384Z,17.80
2023-04-28T11:44:29.016Z,18.87
2023-04-28T11:47:01.646Z,18.03
2023-04-28T11:49:33.495Z,14.60
2023-04-28T11:52:08.420Z,15.93
2023-04-28T11:54:35.805Z,17.47
2023-04-28T11:57:05.778Z,19.90
2023-04-28T11:59:34.251Z,23.80
2023-04-28T12:02:04.176Z,36.43
2023-04-28T12:04:32.136Z,25.10
2023-04-28T12:07:03.645Z,25.57
2023-04-28T12:09:30.770Z,26.63
2023-04-28T12:12:02.219Z,27.80
2023-04-28T12:14:30.107Z,31.67
2023-04-28T12:16:56.935Z,35.73
2023-04-28T12:19:23.303Z,32.07
2023-04-28T12:22:01.154Z,30.93
2023-04-28T12:24:27.755Z,35.10
2023-04-28T12:26:54.616Z,28.13
2023-04-28T12:29:50.938Z,30.10
2023-04-28T12:32:18.654Z,30.97
2023-04-28T12:34:46.576Z,29.13
2023-04-28T12:37:13.484Z,25.87
2023-04-28T12:39:41.715Z,32.57
2023-04-28T12:42:08.381Z,26.77
2023-04-28T12:44:36.617Z,30.47
2023-04-28T12:47:07.728Z,26.23
2023-04-28T12:49:37.850Z,24.93
2023-04-28T12:52:05.083Z,35.83
2023-04-28T12:54:31.482Z,31.70
2023-04-28T12:57:01.024Z,29.27
2023-04-28T12:59:28.767Z,35.87
2023-04-28T13:01:55.661Z,29.23
2023-04-28T13:04:22.255Z,31.20
2023-04-28T13:06:48.849Z,32.27
2023-04-28T13:09:16.070Z,27.37
2023-04-28T13:11:42.860Z,33.13
2023-04-28T13:14:09.318Z,25.57
2023-04-28T13:16:36.109Z,25.50
2023-04-28T13:19:03.963Z,35.40
2023-04-28T13:21:30.337Z,20.67
2023-04-28T13:23:57.139Z,19.07
2023-04-28T13:26:24.272Z,19.13
2023-04-28T13:28:52.190Z,18.30
2023-04-28T13:31:19.497Z,17.17
2023-04-28T13:33:45.973Z,13.60
2023-04-28T13:36:12.712Z,14.77
2023-04-28T13:38:39.566Z,14.53
2023-04-28T13:41:06.157Z,13.27
2023-04-28T13:43:32.480Z,11.53
2023-04-28T13:45:58.882Z,11.77
2023-04-28T13:48:27.573Z,12.77
2023-04-28T13:50:54.418Z,11.87
2023-04-28T13:53:20.782Z,11.37
2023-04-28T13:55:50.087Z,11.47
2023-04-28T13:58:17.317Z,13.37
2023-04-28T14:00:43.694Z,13.93
2023-04-28T14:03:11.336Z,12.90
2023-04-28T14:05:48.190Z,14.80
2023-04-28T14:08:18.757Z,13.60
2023-04-28T14:10:47.445Z,13.23
2023-04-28T14:13:14.015Z,13.57
2023-04-28T14:15:54.696Z,12.47
2023-04-28T14:18:24.306Z,13.40
2023-04-28T14:20:50.819Z,14.37
2023-04-28T14:23:17.406Z,14.63
2023-04-28T14:25:43.997Z,14.40
2023-04-28T14:28:10.617Z,15.23
2023-04-28T14:30:37.110Z,14.43
2023-04-28T14:33:03.599Z,13.60
2023-04-28T14:35:31.654Z,13.57
2023-04-28T14:37:58.256Z,14.97
2023-04-28T14:40:25.509Z,14.67
2023-04-28T14:42:52.689Z,13.23
2023-04-28T14:45:19.168Z,15.47
2023-04-28T14:47:45.673Z,14.93
2023-04-28T14:50:14.012Z,14.23
2023-04-28T14:52:44.139Z,12.57
2023-04-28T14:55:10.544Z,11.23
2023-04-28T14:57:37.686Z,10.77
2023-04-28T15:00:07.077Z,10.13
2023-04-28T15:02:34.180Z,10.10
2023-04-28T15:05:00.810Z,11.13
2023-04-28T15:07:31.559Z,9.73
2023-04-28T15:09:59.304Z,10.13
2023-04-28T15:12:25.971Z,9.10
2023-04-28T15:14:53.598Z,8.80
2023-04-28T15:17:21.142Z,9.00
2023-04-28T15:19:47.748Z,9.83
2023-04-28T15:22:14.131Z,10.07
2023-04-28T15:24:40.693Z,9.17
2023-04-28T15:27:07.079Z,8.63
2023-04-28T15:29:33.513Z,11.93
2023-04-28T15:32:00.301Z,9.83
2023-04-28T15:34:26.716Z,10.73
2023-04-28T15:36:56.602Z,10.13
2023-04-28T15:39:24.924Z,10.43
2023-04-28T15:41:52.535Z,10.93
2023-04-28T15:44:19.253Z,9.40
2023-04-28T15:46:45.748Z,8.73
2023-04-28T15:49:12.152Z,8.90
2023-04-28T15:51:38.540Z,8.10
2023-04-28T15:54:04.893Z,8.00
2023-04-28T15:56:31.479Z,8.43
2023-04-28T15:58:57.867Z,6.70
2023-04-28T16:01:24.405Z,7.20
2023-04-28T16:03:51.005Z,6.37
2023-04-28T16:06:17.532Z,6.60
2023-04-28T16:08:43.946Z,6.57
2023-04-28T16:11:17.460Z,6.47
2023-04-28T16:13:44.651Z,6.17
2023-04-28T16:16:12.090Z,6.00
2023-04-28T16:18:38.744Z,5.77
2023-04-28T16:21:05.175Z,6.40
2023-04-28T16:23:31.553Z,5.73
2023-04-28T16:25:57.908Z,6.70
2023-04-28T16:28:24.280Z,6.33
2023-04-28T16:30:50.843Z,5.67
2023-04-28T16:33:17.319Z,6.10
2023-04-28T16:35:44.185Z,5.17
2023-04-28T16:38:11.752Z,6.07
2023-04-28T16:40:38.099Z,5.87
2023-04-28T16:43:04.495Z,6.73
2023-04-28T16:45:30.836Z,6.90
2023-04-28T16:47:57.257Z,7.47
2023-04-28T16:50:23.669Z,6.47
2023-04-28T16:52:50.026Z,6.90
2023-04-28T16:55:18.258Z,7.87
2023-04-28T16:57:45.486Z,7.93
2023-04-28T17:00:12.325Z,7.17
2023-04-28T17:02:38.896Z,5.77
2023-04-28T17:05:05.452Z,6.20
2023-04-28T17:07:31.801Z,5.80
2023-04-28T17:09:58.203Z,4.57
2023-04-28T17:12:25.110Z,4.17
2023-04-28T17:14:51.529Z,4.43
2023-04-28T17:17:18.058Z,4.17
2023-04-28T17:19:44.419Z,4.03
2023-04-28T17:22:11.008Z,5.03
2023-04-28T17:24:37.472Z,4.43
2023-04-28T17:27:03.859Z,4.00
2023-04-28T17:29:30.937Z,5.27
2023-04-28T17:31:57.470Z,4.60
2023-04-28T17:34:23.968Z,4.43
2023-04-28T17:36:50.469Z,4.63
2023-04-28T17:39:17.100Z,4.53
2023-04-28T17:41:43.656Z,4.90
2023-04-28T17:44:10.055Z,4.77
2023-04-28T17:46:37.635Z,5.90
2023-04-28T17:49:04.316Z,5.27
2023-04-28T17:51:30.690Z,5.17
2023-04-28T17:54:00.524Z,5.50
2023-04-28T17:56:27.533Z,6.00
2023-04-28T17:58:55.071Z,4.53
2023-04-28T18:01:21.494Z,4.93
2023-04-28T18:03:48.119Z,6.03
2023-04-28T18:06:14.708Z,4.90
2023-04-28T18:08:41.058Z,5.03
2023-04-28T18:11:09.799Z,5.90
2023-04-28T18:13:36.289Z,5.67
2023-04-28T18:16:04.455Z,5.60
2023-04-28T18:18:33.905Z,7.03
2023-04-28T18:21:02.200Z,7.53
2023-04-28T18:23:30.201Z,8.13
2023-04-28T18:25:56.960Z,10.73
2023-04-28T18:28:23.310Z,10.70
2023-04-28T18:30:50.078Z,11.57
2023-04-28T18:33:22.289Z,12.07
2023-04-28T18:35:58.401Z,13.23
2023-04-28T18:38:24.846Z,13.97
2023-04-28T18:40:51.194Z,12.77
2023-04-28T18:43:17.633Z,15.30
2023-04-28T18:45:44.519Z,13.80
2023-04-28T18:48:11.492Z,15.43
2023-04-28T18:50:38.031Z,15.67
2023-04-28T18:53:04.957Z,12.67
2023-04-28T18:55:34.277Z,16.03
2023-04-28T18:58:01.831Z,24.63
2023-04-28T19:00:28.280Z,20.40
2023-04-28T19:02:54.812Z,19.30
2023-04-28T19:05:21.413Z,17.33
2023-04-28T19:07:47.772Z,18.13
2023-04-28T19:10:14.085Z,15.47
2023-04-28T19:12:40.504Z,15.80
2023-04-28T19:15:07.295Z,15.63
2023-04-28T19:17:33.655Z,14.20
2023-04-28T19:20:00.176Z,15.60
2023-04-28T19:22:37.787Z,16.37
2023-04-28T19:25:06.709Z,15.73
2023-04-28T19:27:35.370Z,16.37
2023-04-28T19:30:02.975Z,15.13
2023-04-28T19:32:30.086Z,15.70
2023-04-28T19:34:57.587Z,15.57
2023-04-28T19:37:25.065Z,15.43
2023-04-28T19:39:51.807Z,15.63
2023-04-28T19:42:18.930Z,14.00
2023-04-28T19:44:46.517Z,16.07
2023-04-28T19:47:13.478Z,14.53
2023-04-28T19:49:42.015Z,14.67
2023-04-28T19:52:10.015Z,16.50
2023-04-28T19:54:38.603Z,15.77
2023-04-28T19:57:05.224Z,15.20
2023-04-28T19:59:32.061Z,25.27
2023-04-28T20:02:01.210Z,17.33
2023-04-28T20:04:28.958Z,15.70
2023-04-28T20:06:55.784Z,19.80
2023-04-28T20:09:22.311Z,15.37
2023-04-28T20:11:49.398Z,16.43
2023-04-28T20:14:15.769Z,16.70
2023-04-28T20:16:42.210Z,18.67
2023-04-28T20:19:08.585Z,15.43
2023-04-28T20:21:36.715Z,18.20
2023-04-28T20:24:03.184Z,17.80
2023-04-28T20:26:31.109Z,17.47
2023-04-28T20:28:58.415Z,19.47
2023-04-28T20:31:25.071Z,16.63
2023-04-28T20:33:51.500Z,17.67
2023-04-28T20:36:17.879Z,18.13
2023-04-28T20:38:44.275Z,20.87
2023-04-28T20:41:10.883Z,18.17
2023-04-28T20:43:37.969Z,16.90
2023-04-28T20:46:10.608Z,18.60
2023-04-28T20:48:36.941Z,23.87
2023-04-28T20:51:03.671Z,19.77
2023-04-28T20:53:31.423Z,24.67
2023-04-28T20:56:02.383Z,18.40
2023-04-28T20:58:29.689Z,23.00
2023-04-28T21:00:56.064Z,17.73
2023-04-28T21:03:23.738Z,17.70
2023-04-28T21:05:50.408Z,16.77
2023-04-28T21:08:17.001Z,20.27
2023-04-28T21:10:43.361Z,20.03
2023-04-28T21:13:10.193Z,16.47
2023-04-28T21:15:37.829Z,19.17
2023-04-28T21:18:04.582Z,16.87
2023-04-28T21:20:31.151Z,16.63
2023-04-28T21:22:57.567Z,14.97
2023-04-28T21:25:25.008Z,18.13
2023-04-28T21:27:52.908Z,16.00
2023-04-28T21:30:20.615Z,17.50
2023-04-28T21:32:47.306Z,16.33
2023-04-28T21:35:14.212Z,19.33
2023-04-28T21:37:40.722Z,15.53
2023-04-28T21:40:08.854Z,13.10
2023-04-28T21:42:35.685Z,13.27
2023-04-28T21:45:02.035Z,14.93
2023-04-28T21:47:28.514Z,13.90
2023-04-28T21:49:54.941Z,15.43
2023-04-28T21:52:21.260Z,14.47
2023-04-28T21:54:47.596Z,15.53
2023-04-28T21:57:15.662Z,16.33
2023-04-28T21:59:42.289Z,14.83
2023-04-28T22:02:09.039Z,13.27
2023-04-28T22:04:35.677Z,15.43
2023-04-28T22:07:02.237Z,17.77
2023-04-28T22:09:28.824Z,19.93
2023-04-28T22:11:55.170Z,14.63
2023-04-28T22:14:38.936Z,17.50
2023-04-28T22:17:07.355Z,18.53
2023-04-28T22:19:33.970Z,14.27
2023-04-28T22:22:00.308Z,20.77
2023-04-28T22:24:27.623Z,19.50
2023-04-28T22:26:54.665Z,17.17
2023-04-28T22:29:21.378Z,24.73
2023-04-28T22:31:47.705Z,19.27
2023-04-28T22:34:14.088Z,19.73
2023-04-28T22:36:40.422Z,17.70
2023-04-28T22:39:06.815Z,20.93
2023-04-28T22:41:33.165Z,23.17
2023-04-28T22:43:59.564Z,21.30
2023-04-28T22:46:26.189Z,25.70
2023-04-28T22:48:52.658Z,18.90
2023-04-28T22:51:19.341Z,21.93
2023-04-28T22:53:47.046Z,19.57
2023-04-28T22:56:13.422Z,21.80
2023-04-28T22:58:39.740Z,25.40
2023-04-28T23:01:06.472Z,17.60
2023-04-28T23:03:33.869Z,24.63
2023-04-28T23:06:00.349Z,23.47
2023-04-28T23:08:26.720Z,31.37
2023-04-28T23:10:55.921Z,34.10
2023-04-28T23:13:22.341Z,32.47
2023-04-28T23:15:48.787Z,32.20
2023-04-28T23:18:15.224Z,39.23
2023-04-28T23:20:41.623Z,38.37
2023-04-28T23:23:08.001Z,33.53
2023-04-28T23:25:34.331Z,35.03
2023-04-28T23:28:00.671Z,39.97
2023-04-28T23:30:27.038Z,40.80
2023-04-28T23:32:53.375Z,36.80
2023-04-28T23:35:19.726Z,37.13
2023-04-28T23:37:46.102Z,38.13
2023-04-28T23:40:12.757Z,38.90
2023-04-28T23:42:39.058Z,43.30
2023-04-28T23:45:06.698Z,35.57
2023-04-28T23:47:33.181Z,48.33
2023-04-28T23:49:59.549Z,45.23
2023-04-28T23:52:25.912Z,44.17
2023-04-28T23:54:55.216Z,42.50
2023-04-28T23:57:21.606Z,45.70
2023-04-28T23:59:48.113Z,42.57
